Time;durP1;ratioP1;P1;durP2;ratioP2;P2;SDS_P1;SDS_P2;PMS_P1;PMS_P2;Temp;Humidity;BMP_temperature;BMP_pressure;BME280_temperature;BME280_humidity;BME280_pressure;Samples;Min_cycle;Max_cycle;Signal;HPM_P1;HPM_P2
2023/06/04 00:01:09;;;;;;;8.25;3.20;;;;;;;15.89;50.51;100631.19;5066104;28;20047;-67
2023/06/04 00:03:35;;;;;;;8.35;3.95;;;;;;;15.86;50.65;100642.31;5085013;28;20032;-66
2023/06/04 00:06:00;;;;;;;10.75;3.28;;;;;;;15.83;51.22;100647.19;5067812;28;20064;-67
2023/06/04 00:08:26;;;;;;;7.65;3.65;;;;;;;15.68;51.30;100624.47;5080038;28;20043;-67
2023/06/04 00:10:51;;;;;;;8.25;3.42;;;;;;;15.74;50.98;100643.59;5068851;28;20449;-67
2023/06/04 00:13:17;;;;;;;9.27;3.45;;;;;;;15.63;50.67;100629.50;5071471;28;20037;-66
2023/06/04 00:15:42;;;;;;;7.47;3.53;;;;;;;15.56;50.56;100614.91;5085658;28;20027;-67
2023/06/04 00:18:08;;;;;;;15.85;3.67;;;;;;;15.68;50.37;100643.41;5079517;28;20501;-67
2023/06/04 00:20:33;;;;;;;5.50;3.38;;;;;;;15.61;50.52;100635.06;5076535;28;20408;-67
2023/06/04 00:22:59;;;;;;;6.72;3.50;;;;;;;15.63;50.43;100638.47;5075085;28;20036;-67
2023/06/04 00:25:24;;;;;;;11.57;2.95;;;;;;;15.51;50.89;100612.69;5072872;28;20039;-67
2023/06/04 00:27:51;;;;;;;8.55;3.38;;;;;;;15.55;50.94;100622.16;5078156;28;20032;-67
2023/06/04 00:30:17;;;;;;;6.90;3.22;;;;;;;15.58;50.81;100629.97;5073014;28;20046;-67
2023/06/04 00:32:42;;;;;;;6.97;3.10;;;;;;;15.67;50.72;100638.97;5072902;28;20032;-67
2023/06/04 00:35:09;;;;;;;11.55;2.95;;;;;;;15.58;50.40;100623.72;5078590;28;20024;-67
2023/06/04 00:37:34;;;;;;;9.80;3.70;;;;;;;15.64;50.82;100644.72;5082781;28;20020;-67
2023/06/04 00:40:00;;;;;;;6.88;3.25;;;;;;;15.62;50.71;100647.59;5071549;28;20032;-67
2023/06/04 00:42:25;;;;;;;9.88;3.35;;;;;;;15.60;50.46;100638.78;5070612;28;20071;-66
2023/06/04 00:44:51;;;;;;;5.35;2.60;;;;;;;15.55;50.38;100629.44;5077856;28;20078;-66
2023/06/04 00:47:19;;;;;;;6.38;3.15;;;;;;;15.54;50.05;100625.88;5075758;28;20032;-68
2023/06/04 00:49:45;;;;;;;6.38;2.70;;;;;;;15.59;49.90;100637.09;5072756;28;20491;-79
2023/06/04 00:52:14;;;;;;;4.78;2.60;;;;;;;15.58;49.67;100627.25;5087344;28;20147;-78
2023/06/04 00:54:40;;;;;;;5.47;2.60;;;;;;;15.61;49.73;100626.94;5085555;28;20029;-79
2023/06/04 00:57:06;;;;;;;7.55;2.97;;;;;;;15.61;49.74;100620.72;5076733;28;20024;-79
2023/06/04 00:59:33;;;;;;;5.82;2.80;;;;;;;15.52;49.58;100608.13;5084479;28;20493;-79
2023/06/04 01:02:03;;;;;;;6.85;3.13;;;;;;;15.59;49.60;100615.47;5085336;28;20044;-79
2023/06/04 01:04:46;;;;;;;7.85;2.95;;;;;;;15.67;49.65;100629.00;5085606;28;20510;-78
2023/06/04 01:07:14;;;;;;;3.85;2.42;;;;;;;15.70;49.50;100631.41;5083918;28;20512;-80
2023/06/04 01:09:40;;;;;;;8.05;2.60;;;;;;;15.70;49.28;100634.09;5088438;28;20081;-77
2023/06/04 01:12:07;;;;;;;6.18;2.72;;;;;;;15.67;49.41;100626.31;5083069;28;20028;-79
2023/06/04 01:14:36;;;;;;;4.30;2.20;;;;;;;15.61;49.25;100612.59;5090655;28;20039;-80
2023/06/04 01:17:08;;;;;;;4.95;2.33;;;;;;;15.63;49.48;100622.22;5075014;28;20104;-78
2023/06/04 01:19:47;;;;;;;4.47;2.42;;;;;;;15.74;49.41;100634.66;5089482;28;20102;-79
2023/06/04 01:22:21;;;;;;;5.05;2.50;;;;;;;15.74;49.96;100640.06;5080845;28;20016;-79
2023/06/04 01:24:55;;;;;;;8.27;3.05;;;;;;;15.74;49.63;100638.19;5082779;28;20020;-78
2023/06/04 01:27:22;;;;;;;6.70;2.80;;;;;;;15.72;49.78;100642.91;5084137;28;20036;-79
2023/06/04 01:29:49;;;;;;;7.63;2.80;;;;;;;15.74;49.73;100648.16;5086780;28;20028;-79
2023/06/04 01:32:16;;;;;;;5.32;2.83;;;;;;;15.73;49.80;100650.00;5078934;28;20028;-78
2023/06/04 01:34:46;;;;;;;5.93;2.72;;;;;;;15.69;50.23;100637.81;5082753;28;20479;-79
2023/06/04 01:37:12;;;;;;;5.70;2.55;;;;;;;15.68;50.61;100637.97;5076884;28;20047;-79
2023/06/04 01:39:37;;;;;;;6.13;2.55;;;;;;;15.63;50.64;100635.75;5084445;28;20063;-79
2023/06/04 01:42:03;;;;;;;9.40;2.78;;;;;;;15.54;50.84;100617.78;5071414;28;20379;-78
2023/06/04 01:44:29;;;;;;;4.38;2.63;;;;;;;15.57;50.88;100622.00;5086445;28;20589;-79
2023/06/04 01:46:54;;;;;;;4.38;2.67;;;;;;;15.34;50.78;100605.44;5082203;28;20032;-79
2023/06/04 01:49:20;;;;;;;7.57;3.08;;;;;;;15.50;51.24;100637.19;5083538;28;20040;-78
2023/06/04 01:51:45;;;;;;;5.90;2.60;;;;;;;15.46;51.13;100636.66;5082799;28;20020;-78
2023/06/04 01:54:11;;;;;;;6.03;2.45;;;;;;;15.33;51.06;100617.28;5072375;28;20028;-78
2023/06/04 01:56:36;;;;;;;6.55;3.25;;;;;;;15.35;51.32;100636.88;5090855;28;20028;-78
2023/06/04 01:59:02;;;;;;;4.18;2.50;;;;;;;15.40;51.28;100649.94;5078771;28;20020;-78
2023/06/04 02:01:27;;;;;;;8.05;3.00;;;;;;;15.25;51.46;100628.00;5086355;28;20092;-78
2023/06/04 02:03:53;;;;;;;7.95;2.75;;;;;;;15.21;52.15;100636.56;5083092;28;20032;-78
2023/06/04 02:06:18;;;;;;;7.22;2.95;;;;;;;15.23;52.60;100646.25;5085815;28;20085;-78
2023/06/04 02:08:44;;;;;;;7.95;2.90;;;;;;;15.16;52.58;100645.16;5083791;28;20016;-78
2023/06/04 02:11:10;;;;;;;9.25;3.10;;;;;;;15.10;52.77;100632.28;5082993;28;20398;-79
2023/06/04 02:13:35;;;;;;;8.32;2.85;;;;;;;15.13;53.08;100641.94;5074785;28;20025;-78
2023/06/04 02:16:01;;;;;;;5.28;2.75;;;;;;;15.09;53.74;100641.38;5091095;28;20027;-79
2023/06/04 02:18:27;;;;;;;5.72;2.97;;;;;;;15.03;53.80;100633.88;5083512;28;20031;-79
2023/06/04 02:20:52;;;;;;;6.45;2.97;;;;;;;15.02;53.92;100636.75;5089463;28;20024;-79
2023/06/04 02:23:19;;;;;;;5.63;2.50;;;;;;;14.99;53.32;100637.91;5074361;28;20036;-78
2023/06/04 02:25:46;;;;;;;4.07;2.30;;;;;;;14.94;53.19;100632.16;5072041;28;20082;-79
2023/06/04 02:28:12;;;;;;;8.85;2.83;;;;;;;15.02;53.14;100642.16;5080023;28;20028;-79
2023/06/04 02:30:38;;;;;;;5.38;2.30;;;;;;;14.96;52.91;100627.41;5078861;28;20046;-80
2023/06/04 02:33:03;;;;;;;6.88;2.85;;;;;;;14.95;53.30;100619.47;5083807;28;20110;-79
2023/06/04 02:35:30;;;;;;;5.53;2.55;;;;;;;15.03;53.33;100631.19;5071293;28;20487;-78
2023/06/04 02:37:57;;;;;;;4.97;2.78;;;;;;;14.98;53.06;100622.72;5078478;28;20024;-79
2023/06/04 02:40:24;;;;;;;5.53;2.38;;;;;;;15.06;52.75;100638.97;5079672;28;20111;-79
2023/06/04 02:42:50;;;;;;;3.95;1.95;;;;;;;15.06;52.74;100638.97;5077425;28;20085;-79
2023/06/04 02:45:15;;;;;;;4.10;2.38;;;;;;;15.03;51.99;100630.38;5084215;28;20020;-78
2023/06/04 02:47:41;;;;;;;3.25;1.90;;;;;;;15.01;52.04;100630.50;5082352;28;20111;-79
2023/06/04 02:50:06;;;;;;;3.13;2.00;;;;;;;15.13;51.60;100645.47;5075572;28;20024;-79
2023/06/04 02:52:32;;;;;;;4.95;2.15;;;;;;;15.15;51.59;100651.56;5083056;28;20020;-78
2023/06/04 02:54:58;;;;;;;4.30;2.08;;;;;;;15.20;51.12;100648.41;5071746;28;20020;-80
2023/06/04 02:57:23;;;;;;;3.47;2.00;;;;;;;15.17;50.93;100632.50;5080605;28;20463;-79
2023/06/04 02:59:49;;;;;;;6.35;1.70;;;;;;;15.29;50.85;100648.28;5086964;28;20036;-78
2023/06/04 03:02:15;;;;;;;5.82;2.17;;;;;;;15.30;50.23;100646.47;5076405;28;20039;-79
2023/06/04 03:04:42;;;;;;;3.58;2.17;;;;;;;15.35;49.95;100660.34;5081156;28;20089;-79
2023/06/04 03:07:11;;;;;;;3.42;1.60;;;;;;;15.35;49.76;100650.38;5080648;28;20125;-79
2023/06/04 03:09:37;;;;;;;4.43;2.00;;;;;;;15.37;49.53;100655.66;5075395;28;20116;-79
2023/06/04 03:12:03;;;;;;;7.78;1.58;;;;;;;15.39;49.37;100661.78;5070778;28;20449;-80
2023/06/04 03:14:32;;;;;;;7.15;1.90;;;;;;;15.37;49.36;100651.13;5077392;28;20037;-79
2023/06/04 03:17:10;;;;;;;3.75;1.73;;;;;;;15.40;49.42;100648.09;5077484;28;20459;-78
2023/06/04 03:19:41;;;;;;;2.67;1.65;;;;;;;15.51;48.95;100658.66;5081614;28;20106;-78
2023/06/04 03:22:08;;;;;;;4.38;2.20;;;;;;;15.47;48.86;100651.88;5080093;28;20690;-78
2023/06/04 03:24:39;;;;;;;6.03;2.47;;;;;;;15.43;48.29;100647.78;5081809;28;20059;-78
2023/06/04 03:27:07;;;;;;;9.48;1.77;;;;;;;15.56;48.60;100660.88;5086804;28;20474;-79
2023/06/04 03:29:33;;;;;;;4.22;1.98;;;;;;;15.59;48.56;100660.56;5080565;28;20028;-79
2023/06/04 03:31:59;;;;;;;2.53;1.70;;;;;;;15.62;48.30;100657.53;5070780;28;20020;-80
2023/06/04 03:34:25;;;;;;;4.07;2.17;;;;;;;15.65;48.21;100665.34;5075621;28;20466;-79
2023/06/04 03:36:51;;;;;;;5.15;2.25;;;;;;;15.60;48.24;100652.28;5086527;28;20035;-78
2023/06/04 03:39:19;;;;;;;3.30;1.67;;;;;;;15.66;48.15;100651.66;5078923;28;20058;-79
2023/06/04 03:41:45;;;;;;;3.10;1.50;;;;;;;15.76;48.19;100663.22;5079851;28;20028;-79
2023/06/04 03:44:19;;;;;;;3.15;1.77;;;;;;;15.79;47.99;100670.16;5085373;28;20024;-80
2023/06/04 03:46:45;;;;;;;2.35;1.80;;;;;;;15.82;48.04;100669.84;5088349;28;20484;-78
2023/06/04 03:49:11;;;;;;;2.13;1.70;;;;;;;15.83;47.75;100674.22;5077056;28;20066;-80
2023/06/04 03:51:41;;;;;;;6.40;1.63;;;;;;;15.83;47.80;100664.28;5086085;28;20475;-79
2023/06/04 03:54:06;;;;;;;6.35;2.00;;;;;;;15.82;47.89;100670.69;5088891;28;20024;-80
2023/06/04 03:56:32;;;;;;;2.83;1.90;;;;;;;15.85;48.02;100675.78;5085635;28;20390;-79
2023/06/04 03:58:58;;;;;;;6.10;2.00;;;;;;;15.86;48.03;100672.06;5076735;28;20039;-79
2023/06/04 04:01:23;;;;;;;4.10;1.77;;;;;;;15.84;47.96;100662.44;5083046;28;20044;-78
2023/06/04 04:03:50;;;;;;;4.65;1.92;;;;;;;15.86;48.15;100661.25;5083837;28;20016;-79
2023/06/04 04:06:16;;;;;;;6.72;2.05;;;;;;;15.89;48.10;100662.78;5090736;28;20444;-79
2023/06/04 04:08:43;;;;;;;3.25;2.08;;;;;;;15.88;48.13;100666.50;5088647;28;20085;-78
2023/06/04 04:11:10;;;;;;;7.25;1.90;;;;;;;15.91;47.99;100668.91;5077118;28;20020;-80
2023/06/04 04:13:35;;;;;;;6.68;1.98;;;;;;;15.82;47.68;100659.88;5089112;28;20024;-79
2023/06/04 04:16:01;;;;;;;3.45;1.95;;;;;;;15.92;48.16;100667.88;5089541;28;20515;-79
2023/06/04 04:18:27;;;;;;;4.65;2.10;;;;;;;15.94;47.94;100677.50;5074332;28;20534;-78
2023/06/04 04:20:52;;;;;;;2.65;1.83;;;;;;;15.85;48.17;100664.97;5078174;28;20020;-79
2023/06/04 04:23:18;;;;;;;5.90;1.90;;;;;;;15.94;48.02;100674.81;5070622;28;20021;-78
2023/06/04 04:25:48;;;;;;;4.38;1.88;;;;;;;15.95;48.24;100675.66;5084598;28;20398;-79
2023/06/04 04:28:14;;;;;;;4.25;1.90;;;;;;;15.94;48.05;100680.22;5075204;28;20031;-79
2023/06/04 04:30:40;;;;;;;6.60;2.03;;;;;;;15.96;48.27;100682.78;5075938;28;20025;-79
2023/06/04 04:33:06;;;;;;;3.40;1.60;;;;;;;15.87;48.23;100667.53;5082090;28;20521;-80
2023/06/04 04:35:35;;;;;;;2.95;1.80;;;;;;;15.93;48.01;100677.72;5084769;28;20032;-79
2023/06/04 04:38:03;;;;;;;3.70;1.92;;;;;;;16.09;48.16;100698.59;5081611;28;20066;-78
2023/06/04 04:40:29;;;;;;;4.47;2.08;;;;;;;16.09;48.04;100698.59;5069686;28;20032;-80
2023/06/04 04:42:54;;;;;;;2.42;1.83;;;;;;;16.11;47.88;100694.72;5082047;28;20388;-80
2023/06/04 04:45:20;;;;;;;3.17;1.85;;;;;;;16.09;47.80;100685.06;5079158;28;20028;-78
2023/06/04 04:47:46;;;;;;;3.47;1.88;;;;;;;16.14;48.18;100693.53;5090645;28;20119;-79
2023/06/04 04:50:12;;;;;;;5.72;1.88;;;;;;;16.15;47.90;100700.66;5075524;28;20491;-80
2023/06/04 04:52:38;;;;;;;5.00;2.22;;;;;;;16.14;47.57;100678.16;5071008;28;20225;-79
2023/06/04 04:55:04;;;;;;;5.97;2.15;;;;;;;16.21;47.84;100698.13;5072233;28;20024;-78
2023/06/04 04:57:29;;;;;;;5.35;1.77;;;;;;;16.24;47.84;100692.41;5079123;28;20115;-77
2023/06/04 04:59:55;;;;;;;4.15;2.05;;;;;;;16.25;47.62;100696.81;5077454;28;20471;-80
2023/06/04 05:02:20;;;;;;;3.33;2.28;;;;;;;16.32;48.01;100702.44;5084614;28;20040;-79
2023/06/04 05:04:46;;;;;;;4.75;1.98;;;;;;;16.38;47.94;100709.91;5081093;28;20059;-78
2023/06/04 05:07:11;;;;;;;2.70;2.00;;;;;;;16.38;48.09;100696.38;5084832;28;20032;-80
2023/06/04 05:09:37;;;;;;;5.43;2.13;;;;;;;16.42;48.16;100706.72;5071213;28;20113;-79
2023/06/04 05:12:03;;;;;;;8.23;2.35;;;;;;;16.46;48.40;100715.38;5087312;28;20778;-80
2023/06/04 05:14:28;;;;;;;4.03;2.00;;;;;;;16.34;47.96;100689.59;5082105;28;20024;-79
2023/06/04 05:16:58;;;;;;;4.25;2.00;;;;;;;16.48;48.38;100707.94;5087101;28;20488;-80
2023/06/04 05:19:23;;;;;;;5.80;2.50;;;;;;;16.50;48.25;100717.59;5086483;28;20031;-79
2023/06/04 05:21:49;;;;;;;7.13;2.67;;;;;;;16.52;48.65;100718.31;5078493;28;20047;-79
2023/06/04 05:24:15;;;;;;;6.10;2.30;;;;;;;16.48;48.56;100706.06;5075949;28;20024;-80
2023/06/04 05:26:41;;;;;;;3.72;2.03;;;;;;;16.57;48.65;100717.81;5091611;28;20032;-80
2023/06/04 05:29:09;;;;;;;2.47;1.70;;;;;;;16.47;48.54;100688.13;5083131;28;20098;-79
2023/06/04 05:31:36;;;;;;;3.67;1.95;;;;;;;16.55;48.76;100693.59;5092675;28;20020;-80
2023/06/04 05:34:04;;;;;;;3.00;2.03;;;;;;;16.59;48.79;100683.28;5078128;28;20032;-80
2023/06/04 05:36:30;;;;;;;6.03;2.50;;;;;;;16.64;48.89;100694.47;5081774;28;20024;-79
2023/06/04 05:38:59;;;;;;;3.85;1.95;;;;;;;16.72;49.06;100698.06;5087148;28;20032;-79
2023/06/04 05:41:25;;;;;;;2.70;1.90;;;;;;;16.84;49.10;100713.00;5080017;28;20093;-80
2023/06/04 05:43:51;;;;;;;4.45;2.15;;;;;;;16.90;48.56;100722.31;5080775;28;20545;-80
2023/06/04 05:46:17;;;;;;;4.30;1.80;;;;;;;16.94;48.81;100729.09;5085983;28;20170;-80
2023/06/04 05:48:42;;;;;;;4.13;2.08;;;;;;;16.83;48.80;100700.44;5082091;28;20073;-79
2023/06/04 05:51:08;;;;;;;6.60;2.63;;;;;;;16.96;48.19;100727.09;5080690;28;20031;-80
2023/06/04 05:53:33;;;;;;;3.58;2.17;;;;;;;16.99;48.23;100732.19;5075302;28;20028;-69
2023/06/04 05:55:59;;;;;;;5.72;2.38;;;;;;;17.05;48.37;100728.78;5074832;28;20020;-69
2023/06/04 05:58:24;;;;;;;6.32;2.28;;;;;;;17.09;48.40;100732.88;5074251;28;20055;-67
2023/06/04 06:00:50;;;;;;;2.60;1.70;;;;;;;17.14;48.66;100728.66;5069233;28;20048;-69
2023/06/04 06:03:16;;;;;;;3.13;1.98;;;;;;;17.16;49.00;100723.06;5071164;28;20063;-73
2023/06/04 06:05:42;;;;;;;3.22;2.03;;;;;;;17.25;49.19;100731.03;5074428;28;20499;-73
2023/06/04 06:08:08;;;;;;;3.92;1.92;;;;;;;17.35;49.31;100730.88;5082991;28;20107;-74
2023/06/04 06:10:34;;;;;;;5.20;1.77;;;;;;;17.40;49.41;100720.38;5084546;28;20099;-72
2023/06/04 06:13:00;;;;;;;6.50;2.08;;;;;;;17.56;49.05;100734.81;5078015;28;20039;-73
2023/06/04 06:15:26;;;;;;;2.90;1.75;;;;;;;17.66;48.86;100731.94;5069150;28;20025;-72
2023/06/04 06:17:52;;;;;;;2.58;1.80;;;;;;;17.78;49.12;100719.72;5076381;28;20032;-67
2023/06/04 06:20:18;;;;;;;4.20;1.67;;;;;;;18.01;48.44;100735.13;5072440;28;20131;-67
2023/06/04 06:22:44;;;;;;;4.30;1.60;;;;;;;18.06;47.47;100730.03;5070797;28;20028;-66
2023/06/04 06:25:12;;;;;;;3.55;1.80;;;;;;;18.23;46.97;100730.84;5069139;28;20020;-67
2023/06/04 06:27:39;;;;;;;5.75;1.83;;;;;;;18.31;46.48;100727.25;5071372;28;20103;-76
2023/06/04 06:30:06;;;;;;;3.03;1.98;;;;;;;18.45;45.76;100738.28;5074272;28;20039;-75
2023/06/04 06:32:31;;;;;;;5.78;2.72;;;;;;;18.47;45.30;100733.50;5075721;28;20735;-76
2023/06/04 06:34:57;;;;;;;3.95;1.67;;;;;;;18.59;45.44;100734.81;5077431;28;20046;-75
2023/06/04 06:37:22;;;;;;;4.82;1.85;;;;;;;18.69;45.06;100742.75;5075726;28;20040;-76
2023/06/04 06:39:48;;;;;;;4.28;2.10;;;;;;;18.66;44.99;100724.09;5084886;28;20028;-75
2023/06/04 06:42:13;;;;;;;4.95;2.20;;;;;;;18.76;44.81;100728.28;5079285;28;20020;-77
2023/06/04 06:44:39;;;;;;;3.22;1.75;;;;;;;18.84;44.34;100731.00;5076914;28;20050;-75
2023/06/04 06:47:05;;;;;;;2.85;1.83;;;;;;;18.79;44.45;100714.34;5069879;28;20063;-76
2023/06/04 06:49:30;;;;;;;3.72;1.92;;;;;;;18.98;44.46;100746.53;5080715;28;20052;-76
2023/06/04 06:51:55;;;;;;;3.80;1.85;;;;;;;19.06;44.46;100746.47;5080740;28;20302;-75
2023/06/04 06:54:21;;;;;;;6.45;1.85;;;;;;;19.18;44.99;100744.19;5084572;28;20020;-75
2023/06/04 06:56:49;;;;;;;5.78;1.63;;;;;;;19.30;44.46;100751.81;5076582;28;20056;-75
2023/06/04 06:59:14;;;;;;;2.60;1.90;;;;;;;19.43;44.53;100749.34;5083377;28;20028;-75
2023/06/04 07:01:40;;;;;;;2.90;2.05;;;;;;;19.61;43.86;100749.88;5079943;28;20303;-76
2023/06/04 07:04:06;;;;;;;3.33;2.13;;;;;;;19.84;44.74;100753.44;5080128;28;20044;-76
2023/06/04 07:06:32;;;;;;;3.92;2.30;;;;;;;19.98;44.62;100736.28;5084388;28;20046;-75
2023/06/04 07:08:57;;;;;;;5.47;1.92;;;;;;;20.22;44.43;100750.72;5074199;28;20060;-75
2023/06/04 07:11:23;;;;;;;3.88;2.08;;;;;;;20.42;43.64;100758.16;5080076;28;20035;-75
2023/06/04 07:13:48;;;;;;;3.05;1.90;;;;;;;20.58;43.16;100749.81;5081641;28;20391;-76
2023/06/04 07:16:14;;;;;;;4.03;1.88;;;;;;;20.60;43.21;100734.09;5068718;28;20039;-75
2023/06/04 07:18:39;;;;;;;4.68;2.10;;;;;;;20.88;42.83;100751.47;5079113;28;20599;-76
2023/06/04 07:21:05;;;;;;;3.90;1.90;;;;;;;20.91;42.83;100726.53;5073870;28;20021;-75
2023/06/04 07:23:30;;;;;;;4.00;1.83;;;;;;;21.17;42.17;100745.13;5071794;28;20092;-74
2023/06/04 07:25:56;;;;;;;3.08;2.03;;;;;;;21.32;41.68;100751.41;5077523;28;20035;-75
2023/06/04 07:28:22;;;;;;;3.25;2.03;;;;;;;21.41;41.26;100736.59;5073223;28;20024;-74
2023/06/04 07:30:48;;;;;;;6.20;2.47;;;;;;;21.54;41.38;100734.00;5076688;28;20036;-74
2023/06/04 07:33:13;;;;;;;5.70;2.10;;;;;;;21.67;41.50;100728.66;5078802;28;20047;-75
2023/06/04 07:35:39;;;;;;;3.15;2.00;;;;;;;21.74;40.75;100719.50;5070015;28;20050;-74
2023/06/04 07:38:04;;;;;;;3.13;2.10;;;;;;;21.93;40.67;100727.00;5075744;28;20043;-74
2023/06/04 07:40:30;;;;;;;3.90;2.20;;;;;;;22.02;40.96;100727.72;5079351;28;20039;-75
2023/06/04 07:42:55;;;;;;;4.82;2.10;;;;;;;22.10;40.58;100731.16;5077762;28;20044;-75
2023/06/04 07:45:21;;;;;;;4.68;1.88;;;;;;;22.23;40.36;100734.00;5072303;28;20447;-75
2023/06/04 07:47:46;;;;;;;3.33;1.80;;;;;;;22.31;39.66;100732.97;5082471;28;20032;-74
2023/06/04 07:50:12;;;;;;;4.75;2.05;;;;;;;22.40;39.66;100734.50;5076806;28;20032;-73
2023/06/04 07:52:38;;;;;;;4.95;2.10;;;;;;;22.33;39.67;100712.59;5077828;28;20031;-74
2023/06/04 07:55:04;;;;;;;3.72;1.77;;;;;;;22.47;39.45;100721.72;5077870;28;20089;-75
2023/06/04 07:57:30;;;;;;;4.05;2.30;;;;;;;22.68;39.39;100732.59;5076486;28;20498;-75
2023/06/04 07:59:57;;;;;;;4.18;2.20;;;;;;;22.73;38.44;100724.63;5068072;28;20107;-74
2023/06/04 08:02:23;;;;;;;2.92;1.95;;;;;;;22.76;38.17;100732.41;5077309;28;20499;-75
2023/06/04 08:04:49;;;;;;;6.28;1.98;;;;;;;22.65;37.92;100711.13;5075831;28;20032;-74
2023/06/04 08:07:14;;;;;;;3.60;1.90;;;;;;;22.85;38.33;100738.56;5077297;28;20383;-75
2023/06/04 08:09:40;;;;;;;3.97;1.92;;;;;;;22.91;37.26;100741.34;5067436;28;20032;-75
2023/06/04 08:12:06;;;;;;;3.83;2.15;;;;;;;22.93;36.63;100736.53;5077407;28;20043;-75
2023/06/04 08:14:32;;;;;;;2.55;1.73;;;;;;;22.99;36.69;100730.19;5079288;28;20036;-75
2023/06/04 08:16:58;;;;;;;2.53;1.58;;;;;;;23.07;35.93;100734.66;5076891;28;20024;-75
2023/06/04 08:19:23;;;;;;;4.63;2.20;;;;;;;23.15;35.48;100737.22;5072308;28;20032;-75
2023/06/04 08:21:49;;;;;;;2.88;2.05;;;;;;;23.20;35.25;100731.97;5076603;28;20020;-75
2023/06/04 08:24:15;;;;;;;3.22;1.80;;;;;;;23.29;35.44;100728.03;5064534;28;20082;-75
2023/06/04 08:26:41;;;;;;;2.88;1.83;;;;;;;23.40;35.05;100741.09;5079949;28;20554;-74
2023/06/04 08:29:07;;;;;;;3.55;2.05;;;;;;;23.42;34.44;100722.59;5087723;28;20055;-75
2023/06/04 08:31:33;;;;;;;5.50;2.30;;;;;;;23.47;32.96;100726.38;5077278;28;20067;-76
2023/06/04 08:33:58;;;;;;;3.22;1.67;;;;;;;23.56;32.29;100740.72;5078362;28;20356;-74
2023/06/04 08:36:24;;;;;;;3.80;1.92;;;;;;;23.46;32.18;100724.69;5079600;28;20025;-74
2023/06/04 08:38:50;;;;;;;5.00;1.60;;;;;;;23.58;31.23;100738.63;5070000;28;20166;-75
2023/06/04 08:41:27;;;;;;;5.85;1.73;;;;;;;23.59;31.64;100735.69;5084196;28;20031;-75
2023/06/04 08:44:01;;;;;;;7.53;1.83;;;;;;;23.62;32.18;100735.25;5078872;28;20510;-74
2023/06/04 08:46:28;;;;;;;2.17;1.85;;;;;;;23.61;31.43;100733.59;5078968;28;20115;-74
2023/06/04 08:48:58;;;;;;;4.75;2.33;;;;;;;23.61;31.72;100733.59;5081351;28;20081;-73
2023/06/04 08:51:24;;;;;;;4.63;1.98;;;;;;;23.57;31.68;100726.81;5073808;28;20025;-72
2023/06/04 08:53:53;;;;;;;6.00;2.17;;;;;;;23.64;31.50;100732.31;5080321;28;20038;-74
2023/06/04 08:56:20;;;;;;;4.18;1.80;;;;;;;23.68;31.36;100726.22;5066296;28;20479;-72
2023/06/04 08:58:47;;;;;;;4.70;1.92;;;;;;;23.75;31.54;100731.69;5079525;28;20032;-73
2023/06/04 09:01:14;;;;;;;5.82;2.63;;;;;;;23.67;31.46;100713.53;5082572;28;20048;-74
2023/06/04 09:03:40;;;;;;;6.22;2.10;;;;;;;23.76;31.71;100723.25;5073356;28;20036;-75
2023/06/04 09:06:06;;;;;;;5.80;2.10;;;;;;;23.82;31.71;100727.91;5072575;28;20107;-70
2023/06/04 09:08:37;;;;;;;2.35;1.80;;;;;;;23.88;31.16;100727.06;5086433;28;20116;-71
2023/06/04 09:11:06;;;;;;;5.15;2.03;;;;;;;23.92;31.40;100724.72;5086476;28;20434;-71
2023/06/04 09:13:32;;;;;;;2.58;1.73;;;;;;;23.94;31.68;100726.25;5074778;28;20532;-70
2023/06/04 09:16:00;;;;;;;5.78;2.10;;;;;;;23.91;31.87;100721.16;5086350;28;20107;-71
2023/06/04 09:18:26;;;;;;;2.78;2.00;;;;;;;24.00;31.66;100722.66;5081562;28;20524;-71
2023/06/04 09:21:08;;;;;;;2.65;1.92;;;;;;;24.08;31.39;100732.56;5077464;28;20546;-63
2023/06/04 09:23:36;;;;;;;7.88;4.97;;;;;;;24.15;31.75;100728.75;5080153;28;20035;-64
2023/06/04 09:26:09;;;;;;;5.45;2.95;;;;;;;24.17;31.87;100734.88;5082512;28;20405;-65
2023/06/04 09:28:34;;;;;;;3.67;2.00;;;;;;;24.14;31.58;100728.97;5080596;28;20052;-65
2023/06/04 09:31:02;;;;;;;3.97;2.10;;;;;;;24.22;31.54;100737.81;5085586;28;20157;-64
2023/06/04 09:33:28;;;;;;;5.07;2.03;;;;;;;24.18;31.45;100728.34;5073658;28;20024;-63
2023/06/04 09:35:55;;;;;;;13.20;7.13;;;;;;;24.25;31.26;100748.34;5068868;28;20043;-64
2023/06/04 09:38:21;;;;;;;9.45;5.32;;;;;;;24.24;31.38;100734.84;5077923;28;20039;-63
2023/06/04 09:40:47;;;;;;;5.93;2.95;;;;;;;24.24;30.90;100737.59;5081059;28;20021;-63
2023/06/04 09:43:23;;;;;;;3.28;2.33;;;;;;;24.24;31.08;100740.34;5075328;28;20066;-64
2023/06/04 09:45:49;;;;;;;6.75;2.60;;;;;;;24.18;31.55;100728.34;5075811;28;20487;-65
2023/06/04 09:48:21;;;;;;;6.43;2.00;;;;;;;24.37;32.08;100732.94;5078694;28;20076;-63
2023/06/04 09:50:48;;;;;;;5.13;2.17;;;;;;;24.48;31.87;100740.50;5081563;28;20774;-65
2023/06/04 09:53:15;;;;;;;3.75;2.33;;;;;;;24.58;31.47;100736.47;5084146;28;20483;-65
2023/06/04 09:55:41;;;;;;;3.83;2.33;;;;;;;24.57;31.62;100718.34;5069445;28;20052;-65
2023/06/04 09:58:07;;;;;;;4.68;2.00;;;;;;;24.71;31.59;100722.75;5076926;28;20032;-63
2023/06/04 10:00:33;;;;;;;3.90;2.30;;;;;;;24.79;31.59;100736.25;5083734;28;20028;-65
2023/06/04 10:03:02;;;;;;;6.97;2.45;;;;;;;24.80;31.49;100721.47;5077388;28;20020;-63
2023/06/04 10:05:31;;;;;;;6.00;2.35;;;;;;;24.81;31.28;100723.16;5083041;28;20092;-64
2023/06/04 10:08:02;;;;;;;2.72;2.03;;;;;;;24.75;31.14;100710.28;5072974;28;20112;-65
2023/06/04 10:10:28;;;;;;;4.18;2.08;;;;;;;24.87;31.14;100727.78;5073870;28;20536;-63
2023/06/04 10:13:06;;;;;;;4.55;1.98;;;;;;;24.87;30.93;100731.38;5083512;28;20031;-63
2023/06/04 10:15:34;;;;;;;4.22;2.42;;;;;;;24.87;30.94;100733.25;5075572;28;20017;-65
2023/06/04 10:18:01;;;;;;;2.72;2.00;;;;;;;24.86;30.79;100728.84;5068979;28;20123;-64
2023/06/04 10:20:27;;;;;;;6.57;1.77;;;;;;;24.87;30.88;100728.63;5070847;28;20075;-63
2023/06/04 10:22:55;;;;;;;3.47;2.08;;;;;;;24.91;31.23;100727.13;5081887;28;20032;-64
2023/06/04 10:25:20;;;;;;;2.95;1.80;;;;;;;24.93;31.27;100736.00;5079578;28;20040;-65
2023/06/04 10:27:46;;;;;;;3.95;2.00;;;;;;;24.94;30.77;100726.69;5072454;28;20031;-63
2023/06/04 10:30:12;;;;;;;2.78;2.08;;;;;;;24.93;30.44;100718.66;5086590;28;20070;-64
2023/06/04 10:32:38;;;;;;;4.15;2.22;;;;;;;24.97;30.82;100723.50;5066252;28;20385;-65
2023/06/04 10:35:06;;;;;;;6.82;1.98;;;;;;;24.90;30.68;100700.75;5069977;28;20024;-65
2023/06/04 10:37:32;;;;;;;4.57;2.00;;;;;;;25.01;30.77;100729.38;5070315;28;20463;-65
2023/06/04 10:39:58;;;;;;;4.15;2.40;;;;;;;25.00;31.24;100714.00;5072127;28;20033;-63
2023/06/04 10:42:24;;;;;;;4.90;2.00;;;;;;;25.03;31.31;100719.03;5070599;28;20088;-65
2023/06/04 10:44:51;;;;;;;8.00;2.38;;;;;;;25.05;31.34;100711.44;5093649;28;20392;-65
2023/06/04 10:47:26;;;;;;;2.70;1.98;;;;;;;25.06;31.43;100708.47;5082847;28;20037;-64
2023/06/04 10:49:54;;;;;;;3.00;2.10;;;;;;;25.11;31.57;100707.81;5072296;28;20040;-64
2023/06/04 10:52:21;;;;;;;5.50;2.70;;;;;;;25.15;31.56;100698.09;5068900;28;20565;-64
2023/06/04 10:54:53;;;;;;;4.75;2.40;;;;;;;25.19;31.81;100691.94;5069696;28;20025;-65
2023/06/04 10:57:19;;;;;;;4.00;2.08;;;;;;;25.29;31.66;100700.53;5068533;28;20499;-65
2023/06/04 10:59:58;;;;;;;4.63;2.28;;;;;;;25.36;32.03;100704.09;5067597;28;20394;-65
2023/06/04 11:02:24;;;;;;;3.90;1.70;;;;;;;25.29;31.52;100697.78;5065144;28;20096;-64
2023/06/04 11:05:06;;;;;;;3.88;2.10;;;;;;;25.31;31.66;100703.09;5065489;28;20032;-64
2023/06/04 11:07:48;;;;;;;3.90;1.67;;;;;;;25.25;31.79;100706.69;5062775;28;20382;-65
2023/06/04 11:10:16;;;;;;;2.25;1.63;;;;;;;25.22;31.66;100699.72;5068773;28;20482;-64
2023/06/04 11:12:46;;;;;;;2.60;2.03;;;;;;;25.17;31.82;100698.69;5072527;28;20051;-64
2023/06/04 11:15:13;;;;;;;4.55;1.95;;;;;;;25.22;32.24;100697.00;5062341;28;20056;-65
2023/06/04 11:17:49;;;;;;;4.07;2.22;;;;;;;25.33;33.15;100699.06;5068421;28;20039;-65
2023/06/04 11:20:19;;;;;;;2.58;2.00;;;;;;;25.41;32.86;100697.94;5064871;28;20044;-65
2023/06/04 11:23:02;;;;;;;3.25;2.03;;;;;;;25.44;31.95;100706.56;5063554;28;20522;-65